sensor_id;sensor_type;location;lat;lon;timestamp;temperature;humidity
24645;DHT22;12780;45.502;9.146;2023-01-28T00:02:18;5.80;99.90
24645;DHT22;12780;45.502;9.146;2023-01-28T00:04:44;5.80;99.90
24645;DHT22;12780;45.502;9.146;2023-01-28T00:07:09;5.80;99.90
24645;DHT22;12780;45.502;9.146;2023-01-28T00:09:35;5.90;99.90
24645;DHT22;12780;45.502;9.146;2023-01-28T00:12:00;5.90;99.90
24645;DHT22;12780;45.502;9.146;2023-01-28T00:14:26;5.80;99.90
24645;DHT22;12780;45.502;9.146;2023-01-28T00:16:51;5.80;99.90
24645;DHT22;12780;45.502;9.146;2023-01-28T00:19:17;5.80;99.90
24645;DHT22;12780;45.502;9.146;2023-01-28T00:21:43;5.80;99.90
24645;DHT22;12780;45.502;9.146;2023-01-28T00:24:08;5.80;99.90
24645;DHT22;12780;45.502;9.146;2023-01-28T00:26:34;5.80;99.90
24645;DHT22;12780;45.502;9.146;2023-01-28T00:29:00;5.70;99.90
24645;DHT22;12780;45.502;9.146;2023-01-28T00:31:26;5.70;99.90
24645;DHT22;12780;45.502;9.146;2023-01-28T00:33:53;5.70;99.90
24645;DHT22;12780;45.502;9.146;2023-01-28T00:36:20;5.60;99.90
24645;DHT22;12780;45.502;9.146;2023-01-28T00:38:54;5.70;99.90
24645;DHT22;12780;45.502;9.146;2023-01-28T00:41:23;5.70;99.90
24645;DHT22;12780;45.502;9.146;2023-01-28T00:43:49;5.70;99.90
24645;DHT22;12780;45.502;9.146;2023-01-28T00:46:15;5.70;99.90
24645;DHT22;12780;45.502;9.146;2023-01-28T00:48:42;5.70;99.90
24645;DHT22;12780;45.502;9.146;2023-01-28T00:51:09;5.70;99.90
24645;DHT22;12780;45.502;9.146;2023-01-28T00:53:36;5.60;99.90
24645;DHT22;12780;45.502;9.146;2023-01-28T00:56:03;5.60;99.90
24645;DHT22;12780;45.502;9.146;2023-01-28T00:58:30;5.60;99.90
24645;DHT22;12780;45.502;9.146;2023-01-28T01:00:55;5.60;99.90
24645;DHT22;12780;45.502;9.146;2023-01-28T01:03:21;5.60;99.90
24645;DHT22;12780;45.502;9.146;2023-01-28T01:05:47;5.70;99.90
24645;DHT22;12780;45.502;9.146;2023-01-28T01:08:12;5.70;99.90
24645;DHT22;12780;45.502;9.146;2023-01-28T01:10:38;5.80;99.90
24645;DHT22;12780;45.502;9.146;2023-01-28T01:13:05;5.70;99.90
24645;DHT22;12780;45.502;9.146;2023-01-28T01:15:31;5.70;99.90
24645;DHT22;12780;45.502;9.146;2023-01-28T01:17:56;5.70;99.90
24645;DHT22;12780;45.502;9.146;2023-01-28T01:20:28;5.70;99.90
24645;DHT22;12780;45.502;9.146;2023-01-28T01:22:57;5.70;99.90
24645;DHT22;12780;45.502;9.146;2023-01-28T01:25:23;5.70;99.90
24645;DHT22;12780;45.502;9.146;2023-01-28T01:27:49;5.70;99.90
24645;DHT22;12780;45.502;9.146;2023-01-28T01:30:15;5.80;99.90
24645;DHT22;12780;45.502;9.146;2023-01-28T01:32:41;5.70;99.90
24645;DHT22;12780;45.502;9.146;2023-01-28T01:35:08;5.80;99.90
24645;DHT22;12780;45.502;9.146;2023-01-28T01:37:35;5.80;99.90
24645;DHT22;12780;45.502;9.146;2023-01-28T01:40:01;5.80;99.90
24645;DHT22;12780;45.502;9.146;2023-01-28T01:42:30;5.80;99.90
24645;DHT22;12780;45.502;9.146;2023-01-28T01:45:14;5.80;99.90
24645;DHT22;12780;45.502;9.146;2023-01-28T01:50:51;5.90;99.90
24645;DHT22;12780;45.502;9.146;2023-01-28T01:53:19;5.90;99.90
24645;DHT22;12780;45.502;9.146;2023-01-28T01:55:49;5.80;99.90
24645;DHT22;12780;45.502;9.146;2023-01-28T01:58:20;5.70;99.90
24645;DHT22;12780;45.502;9.146;2023-01-28T02:00:48;5.60;99.90
24645;DHT22;12780;45.502;9.146;2023-01-28T02:03:15;5.60;99.90
24645;DHT22;12780;45.502;9.146;2023-01-28T02:05:43;5.70;99.90
24645;DHT22;12780;45.502;9.146;2023-01-28T02:08:09;5.70;99.90
24645;DHT22;12780;45.502;9.146;2023-01-28T02:10:51;5.80;99.90
24645;DHT22;12780;45.502;9.146;2023-01-28T02:13:20;5.80;99.90
24645;DHT22;12780;45.502;9.146;2023-01-28T02:15:48;5.80;99.90
24645;DHT22;12780;45.502;9.146;2023-01-28T02:18:14;5.90;99.90
24645;DHT22;12780;45.502;9.146;2023-01-28T02:21:03;5.80;99.90
24645;DHT22;12780;45.502;9.146;2023-01-28T02:23:54;5.90;99.90
24645;DHT22;12780;45.502;9.146;2023-01-28T02:29:31;5.80;99.90
24645;DHT22;12780;45.502;9.146;2023-01-28T02:32:07;5.80;99.90
24645;DHT22;12780;45.502;9.146;2023-01-28T02:37:20;5.70;99.90
24645;DHT22;12780;45.502;9.146;2023-01-28T02:40:15;5.70;99.90
24645;DHT22;12780;45.502;9.146;2023-01-28T02:42:44;5.70;99.90
24645;DHT22;12780;45.502;9.146;2023-01-28T02:45:23;5.60;99.90
24645;DHT22;12780;45.502;9.146;2023-01-28T02:47:49;5.50;99.90
24645;DHT22;12780;45.502;9.146;2023-01-28T02:50:37;5.40;99.90
24645;DHT22;12780;45.502;9.146;2023-01-28T02:56:19;5.30;99.90
24645;DHT22;12780;45.502;9.146;2023-01-28T02:59:10;5.30;99.90
24645;DHT22;12780;45.502;9.146;2023-01-28T03:07:22;5.20;99.90
24645;DHT22;12780;45.502;9.146;2023-01-28T03:09:49;5.20;99.90
24645;DHT22;12780;45.502;9.146;2023-01-28T03:12:19;5.20;99.90
24645;DHT22;12780;45.502;9.146;2023-01-28T03:15:16;5.20;99.90
24645;DHT22;12780;45.502;9.146;2023-01-28T03:20:50;5.10;99.90
24645;DHT22;12780;45.502;9.146;2023-01-28T03:23:52;5.00;99.90
24645;DHT22;12780;45.502;9.146;2023-01-28T03:27:26;4.90;99.90
24645;DHT22;12780;45.502;9.146;2023-01-28T03:29:50;5.00;99.90
24645;DHT22;12780;45.502;9.146;2023-01-28T03:32:37;5.00;99.90
24645;DHT22;12780;45.502;9.146;2023-01-28T03:35:24;5.00;99.90
24645;DHT22;12780;45.502;9.146;2023-01-28T03:38:11;5.10;99.90
24645;DHT22;12780;45.502;9.146;2023-01-28T03:40:53;5.10;99.90
24645;DHT22;12780;45.502;9.146;2023-01-28T03:43:19;5.10;99.90
24645;DHT22;12780;45.502;9.146;2023-01-28T03:45:45;5.10;99.90
24645;DHT22;12780;45.502;9.146;2023-01-28T03:48:16;5.10;99.90
24645;DHT22;12780;45.502;9.146;2023-01-28T03:50:42;5.10;99.90
24645;DHT22;12780;45.502;9.146;2023-01-28T03:53:08;5.10;99.90
24645;DHT22;12780;45.502;9.146;2023-01-28T03:55:40;5.10;99.90
24645;DHT22;12780;45.502;9.146;2023-01-28T03:58:07;5.10;99.90
24645;DHT22;12780;45.502;9.146;2023-01-28T04:00:33;5.10;99.90
24645;DHT22;12780;45.502;9.146;2023-01-28T04:03:10;5.10;99.90
24645;DHT22;12780;45.502;9.146;2023-01-28T04:05:56;5.10;99.90
24645;DHT22;12780;45.502;9.146;2023-01-28T04:08:22;5.10;99.90
24645;DHT22;12780;45.502;9.146;2023-01-28T04:10:48;5.10;99.90
24645;DHT22;12780;45.502;9.146;2023-01-28T04:13:14;5.10;99.90
24645;DHT22;12780;45.502;9.146;2023-01-28T04:15:41;5.10;99.90
24645;DHT22;12780;45.502;9.146;2023-01-28T04:18:08;5.20;99.90
24645;DHT22;12780;45.502;9.146;2023-01-28T04:20:34;5.20;99.90
24645;DHT22;12780;45.502;9.146;2023-01-28T04:23:00;5.20;99.90
24645;DHT22;12780;45.502;9.146;2023-01-28T04:25:25;5.20;99.90
24645;DHT22;12780;45.502;9.146;2023-01-28T04:27:51;5.20;99.90
24645;DHT22;12780;45.502;9.146;2023-01-28T04:30:17;5.20;99.90
24645;DHT22;12780;45.502;9.146;2023-01-28T04:32:42;5.10;99.90
24645;DHT22;12780;45.502;9.146;2023-01-28T04:35:09;5.10;99.90
24645;DHT22;12780;45.502;9.146;2023-01-28T04:37:34;5.10;99.90
24645;DHT22;12780;45.502;9.146;2023-01-28T04:40:00;5.20;99.90
24645;DHT22;12780;45.502;9.146;2023-01-28T04:42:25;5.20;99.90
24645;DHT22;12780;45.502;9.146;2023-01-28T04:44:51;5.20;99.90
24645;DHT22;12780;45.502;9.146;2023-01-28T04:47:16;5.20;99.90
24645;DHT22;12780;45.502;9.146;2023-01-28T04:49:44;5.20;99.90
24645;DHT22;12780;45.502;9.146;2023-01-28T04:52:09;5.20;99.90
24645;DHT22;12780;45.502;9.146;2023-01-28T04:54:35;5.10;99.90
24645;DHT22;12780;45.502;9.146;2023-01-28T04:57:01;5.10;99.90
24645;DHT22;12780;45.502;9.146;2023-01-28T04:59:26;4.90;99.90
24645;DHT22;12780;45.502;9.146;2023-01-28T05:01:52;4.90;99.90
24645;DHT22;12780;45.502;9.146;2023-01-28T05:04:17;4.90;99.90
24645;DHT22;12780;45.502;9.146;2023-01-28T05:06:43;4.90;99.90
24645;DHT22;12780;45.502;9.146;2023-01-28T05:09:09;4.80;99.90
24645;DHT22;12780;45.502;9.146;2023-01-28T05:11:34;4.60;99.90
24645;DHT22;12780;45.502;9.146;2023-01-28T05:14:00;4.50;99.90
24645;DHT22;12780;45.502;9.146;2023-01-28T05:16:26;4.40;99.90
24645;DHT22;12780;45.502;9.146;2023-01-28T05:18:52;4.40;99.90
24645;DHT22;12780;45.502;9.146;2023-01-28T05:21:17;4.40;99.90
24645;DHT22;12780;45.502;9.146;2023-01-28T05:23:43;4.50;99.90
24645;DHT22;12780;45.502;9.146;2023-01-28T05:26:09;4.50;99.90
24645;DHT22;12780;45.502;9.146;2023-01-28T05:28:35;4.60;99.90
24645;DHT22;12780;45.502;9.146;2023-01-28T05:31:04;4.80;99.90
24645;DHT22;12780;45.502;9.146;2023-01-28T05:33:30;4.80;99.90
24645;DHT22;12780;45.502;9.146;2023-01-28T05:35:56;4.80;99.90
24645;DHT22;12780;45.502;9.146;2023-01-28T05:38:21;4.80;99.90
24645;DHT22;12780;45.502;9.146;2023-01-28T05:40:47;4.70;99.90
24645;DHT22;12780;45.502;9.146;2023-01-28T05:43:13;4.70;99.90
24645;DHT22;12780;45.502;9.146;2023-01-28T05:45:39;4.70;99.90
24645;DHT22;12780;45.502;9.146;2023-01-28T05:48:04;4.80;99.90
24645;DHT22;12780;45.502;9.146;2023-01-28T05:50:30;4.80;99.90
24645;DHT22;12780;45.502;9.146;2023-01-28T05:52:55;4.90;99.90
24645;DHT22;12780;45.502;9.146;2023-01-28T05:55:21;4.90;99.90
24645;DHT22;12780;45.502;9.146;2023-01-28T05:57:47;5.00;99.90
24645;DHT22;12780;45.502;9.146;2023-01-28T06:00:13;5.10;99.90
24645;DHT22;12780;45.502;9.146;2023-01-28T06:02:40;5.10;99.90
24645;DHT22;12780;45.502;9.146;2023-01-28T06:05:06;5.20;99.90
24645;DHT22;12780;45.502;9.146;2023-01-28T06:07:32;5.20;99.90
24645;DHT22;12780;45.502;9.146;2023-01-28T06:09:58;5.20;99.90
24645;DHT22;12780;45.502;9.146;2023-01-28T06:12:23;5.10;99.90
24645;DHT22;12780;45.502;9.146;2023-01-28T06:14:49;5.10;99.90
24645;DHT22;12780;45.502;9.146;2023-01-28T06:17:14;5.00;99.90
24645;DHT22;12780;45.502;9.146;2023-01-28T06:19:40;5.00;99.90
24645;DHT22;12780;45.502;9.146;2023-01-28T06:22:06;5.00;99.90
24645;DHT22;12780;45.502;9.146;2023-01-28T06:24:31;5.00;99.90
24645;DHT22;12780;45.502;9.146;2023-01-28T06:26:57;5.00;99.90
24645;DHT22;12780;45.502;9.146;2023-01-28T06:29:22;4.90;99.90
24645;DHT22;12780;45.502;9.146;2023-01-28T06:31:48;4.90;99.90
24645;DHT22;12780;45.502;9.146;2023-01-28T06:34:14;5.00;99.90
24645;DHT22;12780;45.502;9.146;2023-01-28T06:36:40;4.90;99.90
24645;DHT22;12780;45.502;9.146;2023-01-28T06:39:05;4.90;99.90
24645;DHT22;12780;45.502;9.146;2023-01-28T06:41:31;4.80;99.90
24645;DHT22;12780;45.502;9.146;2023-01-28T06:43:56;4.80;99.90
24645;DHT22;12780;45.502;9.146;2023-01-28T06:46:22;4.80;99.90
24645;DHT22;12780;45.502;9.146;2023-01-28T06:48:49;4.80;99.90
24645;DHT22;12780;45.502;9.146;2023-01-28T06:51:14;4.80;99.90
24645;DHT22;12780;45.502;9.146;2023-01-28T06:53:40;4.80;99.90
24645;DHT22;12780;45.502;9.146;2023-01-28T06:56:06;4.80;99.90
24645;DHT22;12780;45.502;9.146;2023-01-28T06:58:34;4.80;99.90
24645;DHT22;12780;45.502;9.146;2023-01-28T07:01:00;4.80;99.90
24645;DHT22;12780;45.502;9.146;2023-01-28T07:03:25;4.80;99.90
24645;DHT22;12780;45.502;9.146;2023-01-28T07:05:51;4.90;99.90
24645;DHT22;12780;45.502;9.146;2023-01-28T07:08:17;4.90;99.90
24645;DHT22;12780;45.502;9.146;2023-01-28T07:10:43;4.90;99.90
24645;DHT22;12780;45.502;9.146;2023-01-28T07:13:09;4.90;99.90
24645;DHT22;12780;45.502;9.146;2023-01-28T07:15:35;4.80;99.90
24645;DHT22;12780;45.502;9.146;2023-01-28T07:18:00;4.90;99.90
24645;DHT22;12780;45.502;9.146;2023-01-28T07:20:26;4.80;99.90
24645;DHT22;12780;45.502;9.146;2023-01-28T07:22:52;4.80;99.90
24645;DHT22;12780;45.502;9.146;2023-01-28T07:25:17;4.80;99.90
24645;DHT22;12780;45.502;9.146;2023-01-28T07:27:51;4.80;99.90
24645;DHT22;12780;45.502;9.146;2023-01-28T07:30:18;4.80;99.90
24645;DHT22;12780;45.502;9.146;2023-01-28T07:32:44;4.80;99.90
24645;DHT22;12780;45.502;9.146;2023-01-28T07:35:10;4.90;99.90
24645;DHT22;12780;45.502;9.146;2023-01-28T07:37:37;4.80;99.90
24645;DHT22;12780;45.502;9.146;2023-01-28T07:40:03;4.80;99.90
24645;DHT22;12780;45.502;9.146;2023-01-28T07:42:29;4.90;99.90
24645;DHT22;12780;45.502;9.146;2023-01-28T07:44:55;4.80;99.90
24645;DHT22;12780;45.502;9.146;2023-01-28T07:47:21;4.80;99.90
24645;DHT22;12780;45.502;9.146;2023-01-28T07:49:46;4.90;99.90
24645;DHT22;12780;45.502;9.146;2023-01-28T07:52:12;4.90;99.90
24645;DHT22;12780;45.502;9.146;2023-01-28T07:54:38;4.90;99.90
24645;DHT22;12780;45.502;9.146;2023-01-28T07:57:07;4.90;99.90
24645;DHT22;12780;45.502;9.146;2023-01-28T07:59:34;4.90;99.90
24645;DHT22;12780;45.502;9.146;2023-01-28T08:02:00;4.70;99.90
24645;DHT22;12780;45.502;9.146;2023-01-28T08:04:25;4.60;99.90
24645;DHT22;12780;45.502;9.146;2023-01-28T08:06:51;4.60;99.90
24645;DHT22;12780;45.502;9.146;2023-01-28T08:09:16;4.60;99.90
24645;DHT22;12780;45.502;9.146;2023-01-28T08:11:42;4.80;99.90
24645;DHT22;12780;45.502;9.146;2023-01-28T08:14:09;4.90;99.90
24645;DHT22;12780;45.502;9.146;2023-01-28T08:16:35;5.10;99.90
24645;DHT22;12780;45.502;9.146;2023-01-28T08:19:00;5.10;99.90
24645;DHT22;12780;45.502;9.146;2023-01-28T08:21:27;5.10;99.90
24645;DHT22;12780;45.502;9.146;2023-01-28T08:23:52;5.10;99.90
24645;DHT22;12780;45.502;9.146;2023-01-28T08:26:19;5.10;99.90
24645;DHT22;12780;45.502;9.146;2023-01-28T08:28:44;5.00;99.90
24645;DHT22;12780;45.502;9.146;2023-01-28T08:31:10;5.00;99.90
24645;DHT22;12780;45.502;9.146;2023-01-28T08:33:36;4.90;99.90
24645;DHT22;12780;45.502;9.146;2023-01-28T08:36:02;4.90;99.90
24645;DHT22;12780;45.502;9.146;2023-01-28T08:38:29;4.90;99.90
24645;DHT22;12780;45.502;9.146;2023-01-28T08:40:55;4.90;99.90
24645;DHT22;12780;45.502;9.146;2023-01-28T08:43:22;5.00;99.90
24645;DHT22;12780;45.502;9.146;2023-01-28T08:45:48;5.00;99.90
24645;DHT22;12780;45.502;9.146;2023-01-28T08:48:15;5.10;99.90
24645;DHT22;12780;45.502;9.146;2023-01-28T08:50:41;5.30;99.90
24645;DHT22;12780;45.502;9.146;2023-01-28T08:53:14;5.50;99.90
24645;DHT22;12780;45.502;9.146;2023-01-28T08:55:40;5.70;99.90
24645;DHT22;12780;45.502;9.146;2023-01-28T08:58:12;5.90;99.90
24645;DHT22;12780;45.502;9.146;2023-01-28T09:00:39;6.00;99.90
24645;DHT22;12780;45.502;9.146;2023-01-28T09:03:05;6.20;99.90
24645;DHT22;12780;45.502;9.146;2023-01-28T09:05:31;6.30;99.90
24645;DHT22;12780;45.502;9.146;2023-01-28T09:08:11;6.40;99.90
24645;DHT22;12780;45.502;9.146;2023-01-28T09:10:37;6.30;99.90
24645;DHT22;12780;45.502;9.146;2023-01-28T09:13:04;6.30;99.90
24645;DHT22;12780;45.502;9.146;2023-01-28T09:15:31;6.40;99.90
24645;DHT22;12780;45.502;9.146;2023-01-28T09:17:57;6.50;99.90
24645;DHT22;12780;45.502;9.146;2023-01-28T09:20:24;6.60;99.90
24645;DHT22;12780;45.502;9.146;2023-01-28T09:22:49;6.60;99.90
24645;DHT22;12780;45.502;9.146;2023-01-28T09:25:15;6.70;99.90
24645;DHT22;12780;45.502;9.146;2023-01-28T09:27:40;6.70;99.90
24645;DHT22;12780;45.502;9.146;2023-01-28T09:30:07;6.70;99.90
24645;DHT22;12780;45.502;9.146;2023-01-28T09:32:32;6.90;99.90
24645;DHT22;12780;45.502;9.146;2023-01-28T09:34:58;7.00;99.90
24645;DHT22;12780;45.502;9.146;2023-01-28T09:37:24;7.00;99.90
24645;DHT22;12780;45.502;9.146;2023-01-28T09:39:50;7.20;99.90
24645;DHT22;12780;45.502;9.146;2023-01-28T09:45:00;7.30;99.90
24645;DHT22;12780;45.502;9.146;2023-01-28T09:47:31;7.10;99.90
24645;DHT22;12780;45.502;9.146;2023-01-28T09:50:01;7.20;99.90
24645;DHT22;12780;45.502;9.146;2023-01-28T09:52:32;7.20;99.90
24645;DHT22;12780;45.502;9.146;2023-01-28T09:55:06;7.20;99.90
24645;DHT22;12780;45.502;9.146;2023-01-28T09:57:42;7.10;99.90
24645;DHT22;12780;45.502;9.146;2023-01-28T10:00:25;7.10;99.90
24645;DHT22;12780;45.502;9.146;2023-01-28T10:03:22;7.20;99.90
24645;DHT22;12780;45.502;9.146;2023-01-28T10:09:52;7.30;99.90
24645;DHT22;12780;45.502;9.146;2023-01-28T10:11:51;7.40;99.90
24645;DHT22;12780;45.502;9.146;2023-01-28T10:19:37;7.50;99.90
24645;DHT22;12780;45.502;9.146;2023-01-28T10:22:15;7.60;99.90
24645;DHT22;12780;45.502;9.146;2023-01-28T10:24:45;7.60;99.90
24645;DHT22;12780;45.502;9.146;2023-01-28T10:27:20;7.60;99.90
24645;DHT22;12780;45.502;9.146;2023-01-28T10:29:47;7.70;99.90
24645;DHT22;12780;45.502;9.146;2023-01-28T10:32:31;7.80;99.90
24645;DHT22;12780;45.502;9.146;2023-01-28T10:34:58;7.90;99.90
24645;DHT22;12780;45.502;9.146;2023-01-28T10:37:26;7.90;99.90
24645;DHT22;12780;45.502;9.146;2023-01-28T10:39:57;8.00;99.90
24645;DHT22;12780;45.502;9.146;2023-01-28T10:42:34;8.10;99.90
24645;DHT22;12780;45.502;9.146;2023-01-28T10:45:35;8.20;99.90
24645;DHT22;12780;45.502;9.146;2023-01-28T10:48:22;8.10;99.90
24645;DHT22;12780;45.502;9.146;2023-01-28T10:50:56;8.00;99.90
24645;DHT22;12780;45.502;9.146;2023-01-28T10:56:02;8.10;99.90
24645;DHT22;12780;45.502;9.146;2023-01-28T10:58:32;8.20;99.90
24645;DHT22;12780;45.502;9.146;2023-01-28T11:01:06;8.30;99.90
24645;DHT22;12780;45.502;9.146;2023-01-28T11:03:32;8.30;99.90
24645;DHT22;12780;45.502;9.146;2023-01-28T11:06:00;8.30;99.90
24645;DHT22;12780;45.502;9.146;2023-01-28T11:08:28;8.50;99.90
24645;DHT22;12780;45.502;9.146;2023-01-28T11:10:55;8.70;99.90
24645;DHT22;12780;45.502;9.146;2023-01-28T11:13:25;8.60;99.90
24645;DHT22;12780;45.502;9.146;2023-01-28T11:18:39;8.60;99.90
24645;DHT22;12780;45.502;9.146;2023-01-28T11:21:12;8.70;99.90
24645;DHT22;12780;45.502;9.146;2023-01-28T11:24:01;8.80;99.90
24645;DHT22;12780;45.502;9.146;2023-01-28T11:26:31;8.90;99.90
24645;DHT22;12780;45.502;9.146;2023-01-28T11:28:58;8.90;99.90
24645;DHT22;12780;45.502;9.146;2023-01-28T11:31:24;8.90;99.90
24645;DHT22;12780;45.502;9.146;2023-01-28T11:33:59;8.90;99.90
24645;DHT22;12780;45.502;9.146;2023-01-28T11:36:27;9.00;99.90
24645;DHT22;12780;45.502;9.146;2023-01-28T11:38:59;9.00;99.90
24645;DHT22;12780;45.502;9.146;2023-01-28T11:41:30;9.00;99.90
24645;DHT22;12780;45.502;9.146;2023-01-28T11:55:07;9.30;99.90
24645;DHT22;12780;45.502;9.146;2023-01-28T11:57:53;9.20;99.90
24645;DHT22;12780;45.502;9.146;2023-01-28T12:00:30;9.30;99.90
24645;DHT22;12780;45.502;9.146;2023-01-28T12:05:54;9.40;99.90
24645;DHT22;12780;45.502;9.146;2023-01-28T12:32:50;9.90;99.90
24645;DHT22;12780;45.502;9.146;2023-01-28T12:38:15;9.90;99.90
24645;DHT22;12780;45.502;9.146;2023-01-28T12:45:40;9.70;99.90
24645;DHT22;12780;45.502;9.146;2023-01-28T12:48:16;9.60;99.90
24645;DHT22;12780;45.502;9.146;2023-01-28T12:50:54;9.70;99.90
24645;DHT22;12780;45.502;9.146;2023-01-28T12:58:54;9.80;99.90
24645;DHT22;12780;45.502;9.146;2023-01-28T13:01:25;9.90;99.90
24645;DHT22;12780;45.502;9.146;2023-01-28T13:04:03;9.90;99.90
24645;DHT22;12780;45.502;9.146;2023-01-28T13:06:35;10.00;99.90
24645;DHT22;12780;45.502;9.146;2023-01-28T13:09:14;10.00;99.90
24645;DHT22;12780;45.502;9.146;2023-01-28T13:11:41;9.90;99.90
24645;DHT22;12780;45.502;9.146;2023-01-28T13:14:09;9.90;99.90
24645;DHT22;12780;45.502;9.146;2023-01-28T13:16:36;9.80;99.90
24645;DHT22;12780;45.502;9.146;2023-01-28T13:19:35;9.80;99.90
24645;DHT22;12780;45.502;9.146;2023-01-28T13:22:10;9.80;99.90
24645;DHT22;12780;45.502;9.146;2023-01-28T13:24:36;9.80;99.90
24645;DHT22;12780;45.502;9.146;2023-01-28T13:27:12;9.90;99.90
24645;DHT22;12780;45.502;9.146;2023-01-28T13:29:37;9.80;99.90
24645;DHT22;12780;45.502;9.146;2023-01-28T13:32:26;9.80;99.90
24645;DHT22;12780;45.502;9.146;2023-01-28T13:34:59;9.90;99.90
24645;DHT22;12780;45.502;9.146;2023-01-28T13:37:43;9.90;99.90
24645;DHT22;12780;45.502;9.146;2023-01-28T13:42:38;9.90;99.90
24645;DHT22;12780;45.502;9.146;2023-01-28T13:45:20;9.90;99.90
24645;DHT22;12780;45.502;9.146;2023-01-28T13:47:49;9.90;99.90
24645;DHT22;12780;45.502;9.146;2023-01-28T13:50:40;9.90;99.90
24645;DHT22;12780;45.502;9.146;2023-01-28T13:53:18;10.00;99.90
24645;DHT22;12780;45.502;9.146;2023-01-28T13:55:44;10.00;99.90
24645;DHT22;12780;45.502;9.146;2023-01-28T13:58:29;10.00;99.90
24645;DHT22;12780;45.502;9.146;2023-01-28T14:01:25;10.00;99.90
24645;DHT22;12780;45.502;9.146;2023-01-28T14:10:10;10.00;99.90
24645;DHT22;12780;45.502;9.146;2023-01-28T14:13:00;10.10;99.90
24645;DHT22;12780;45.502;9.146;2023-01-28T14:16:09;10.10;99.90
24645;DHT22;12780;45.502;9.146;2023-01-28T14:18:39;10.10;99.90
24645;DHT22;12780;45.502;9.146;2023-01-28T14:21:11;10.10;99.90
24645;DHT22;12780;45.502;9.146;2023-01-28T14:23:42;10.20;99.90
24645;DHT22;12780;45.502;9.146;2023-01-28T14:31:44;10.10;99.90
24645;DHT22;12780;45.502;9.146;2023-01-28T14:34:23;10.10;99.90
24645;DHT22;12780;45.502;9.146;2023-01-28T14:36:52;10.10;99.90
24645;DHT22;12780;45.502;9.146;2023-01-28T14:39:24;10.00;99.90
24645;DHT22;12780;45.502;9.146;2023-01-28T14:41:52;10.00;99.90
24645;DHT22;12780;45.502;9.146;2023-01-28T14:44:31;10.00;99.90
24645;DHT22;12780;45.502;9.146;2023-01-28T14:52:50;10.00;99.90
24645;DHT22;12780;45.502;9.146;2023-01-28T14:55:35;10.10;99.90
24645;DHT22;12780;45.502;9.146;2023-01-28T14:58:10;10.10;99.90
24645;DHT22;12780;45.502;9.146;2023-01-28T15:00:39;10.10;99.90
24645;DHT22;12780;45.502;9.146;2023-01-28T15:03:16;10.00;99.90
24645;DHT22;12780;45.502;9.146;2023-01-28T15:05:42;10.10;99.90
24645;DHT22;12780;45.502;9.146;2023-01-28T15:08:07;10.10;99.90
24645;DHT22;12780;45.502;9.146;2023-01-28T15:10:36;10.20;99.90
24645;DHT22;12780;45.502;9.146;2023-01-28T15:13:12;10.00;99.90
24645;DHT22;12780;45.502;9.146;2023-01-28T15:15:40;10.10;99.90
24645;DHT22;12780;45.502;9.146;2023-01-28T15:20:37;10.10;99.90
24645;DHT22;12780;45.502;9.146;2023-01-28T15:23:06;10.10;99.90
24645;DHT22;12780;45.502;9.146;2023-01-28T15:25:32;10.10;99.90
24645;DHT22;12780;45.502;9.146;2023-01-28T15:27:59;10.00;99.90
24645;DHT22;12780;45.502;9.146;2023-01-28T15:30:28;10.00;99.90
24645;DHT22;12780;45.502;9.146;2023-01-28T15:33:11;10.00;99.90
24645;DHT22;12780;45.502;9.146;2023-01-28T15:35:44;10.00;99.90
24645;DHT22;12780;45.502;9.146;2023-01-28T15:38:10;9.90;99.90
24645;DHT22;12780;45.502;9.146;2023-01-28T15:40:41;9.90;99.90
24645;DHT22;12780;45.502;9.146;2023-01-28T15:43:18;9.90;99.90
24645;DHT22;12780;45.502;9.146;2023-01-28T15:45:46;9.90;99.90
24645;DHT22;12780;45.502;9.146;2023-01-28T15:48:13;9.80;99.90
24645;DHT22;12780;45.502;9.146;2023-01-28T15:50:41;9.80;99.90
24645;DHT22;12780;45.502;9.146;2023-01-28T15:53:10;9.80;99.90
24645;DHT22;12780;45.502;9.146;2023-01-28T15:55:38;9.90;99.90
24645;DHT22;12780;45.502;9.146;2023-01-28T15:58:27;9.60;99.90
24645;DHT22;12780;45.502;9.146;2023-01-28T16:03:35;9.60;99.90
24645;DHT22;12780;45.502;9.146;2023-01-28T16:06:12;9.50;99.90
24645;DHT22;12780;45.502;9.146;2023-01-28T16:08:45;9.50;99.90
24645;DHT22;12780;45.502;9.146;2023-01-28T16:11:11;9.50;99.90
24645;DHT22;12780;45.502;9.146;2023-01-28T16:13:42;9.40;99.90
24645;DHT22;12780;45.502;9.146;2023-01-28T16:16:08;9.40;99.90
24645;DHT22;12780;45.502;9.146;2023-01-28T16:18:48;9.40;99.90
24645;DHT22;12780;45.502;9.146;2023-01-28T16:21:25;9.30;99.90
24645;DHT22;12780;45.502;9.146;2023-01-28T16:24:01;9.40;99.90
24645;DHT22;12780;45.502;9.146;2023-01-28T16:26:29;9.30;99.90
24645;DHT22;12780;45.502;9.146;2023-01-28T16:28:55;9.20;99.90
24645;DHT22;12780;45.502;9.146;2023-01-28T16:31:21;9.10;99.90
24645;DHT22;12780;45.502;9.146;2023-01-28T16:33:47;9.10;99.90
24645;DHT22;12780;45.502;9.146;2023-01-28T16:36:14;9.10;99.90
24645;DHT22;12780;45.502;9.146;2023-01-28T16:38:40;9.10;99.90
24645;DHT22;12780;45.502;9.146;2023-01-28T16:41:12;9.00;99.90
24645;DHT22;12780;45.502;9.146;2023-01-28T16:43:38;9.00;99.90
24645;DHT22;12780;45.502;9.146;2023-01-28T16:46:03;8.80;99.90
24645;DHT22;12780;45.502;9.146;2023-01-28T16:48:29;8.90;99.90
24645;DHT22;12780;45.502;9.146;2023-01-28T16:50:55;8.90;99.90
24645;DHT22;12780;45.502;9.146;2023-01-28T16:53:27;8.90;99.90
24645;DHT22;12780;45.502;9.146;2023-01-28T16:55:53;8.80;99.90
24645;DHT22;12780;45.502;9.146;2023-01-28T16:58:23;8.80;99.90
24645;DHT22;12780;45.502;9.146;2023-01-28T17:00:49;8.80;99.90
24645;DHT22;12780;45.502;9.146;2023-01-28T17:03:15;8.80;99.90
24645;DHT22;12780;45.502;9.146;2023-01-28T17:05:40;8.80;99.90
24645;DHT22;12780;45.502;9.146;2023-01-28T17:08:06;8.80;99.90
24645;DHT22;12780;45.502;9.146;2023-01-28T17:10:32;8.80;99.90
24645;DHT22;12780;45.502;9.146;2023-01-28T17:12:58;8.80;99.90
24645;DHT22;12780;45.502;9.146;2023-01-28T17:15:24;8.80;99.90
24645;DHT22;12780;45.502;9.146;2023-01-28T17:17:50;8.80;99.90
24645;DHT22;12780;45.502;9.146;2023-01-28T17:20:18;8.70;99.90
24645;DHT22;12780;45.502;9.146;2023-01-28T17:22:43;8.70;99.90
24645;DHT22;12780;45.502;9.146;2023-01-28T17:25:10;8.70;99.90
24645;DHT22;12780;45.502;9.146;2023-01-28T17:27:35;8.70;99.90
24645;DHT22;12780;45.502;9.146;2023-01-28T17:30:01;8.70;99.90
24645;DHT22;12780;45.502;9.146;2023-01-28T17:32:27;8.70;99.90
24645;DHT22;12780;45.502;9.146;2023-01-28T17:34:53;8.80;99.90
24645;DHT22;12780;45.502;9.146;2023-01-28T17:37:18;8.70;99.90
24645;DHT22;12780;45.502;9.146;2023-01-28T17:39:44;8.70;99.90
24645;DHT22;12780;45.502;9.146;2023-01-28T17:42:09;8.60;99.90
24645;DHT22;12780;45.502;9.146;2023-01-28T17:44:35;8.80;99.90
24645;DHT22;12780;45.502;9.146;2023-01-28T17:47:00;8.60;99.90
24645;DHT22;12780;45.502;9.146;2023-01-28T17:49:26;8.60;99.90
24645;DHT22;12780;45.502;9.146;2023-01-28T17:51:51;8.50;99.90
24645;DHT22;12780;45.502;9.146;2023-01-28T17:54:17;8.40;99.90
24645;DHT22;12780;45.502;9.146;2023-01-28T17:56:43;8.50;99.90